Sega — WDF8616 — position and weather

sailwx.info

Track history (hours):
 
Tides and Currents Weather Stations Pressure Air Temp Water Temp Dewpoint Dewpoint Depression Visibility Wind Speed Wind Dir Waves Ship Positions

Sega

Owner: MARINEX CONSTRUCTION, INC., CHARLESTON, SC. More information available from US FCC via Universal Licensing System and Coast Guard Vessel Documentation Center.

Last reported at 2017-Dec-03 22:31 UTC. Time now 2017-Dec-17 15:48 UTC.
Position N 31°51' W 080°52'.
Warning: this ship's position is 13 days out of date.

Length 21 m; draft 3 m.

Type: Tug. MMSI: 367142070.

Date/timePositionNaut miles runAvg speedWind from/ knotsBaromVisibWave heightAir tempDewpointWater temp
2017-Dec-03 22:31N 31°51' W 080°52'0 4.7
2017-Dec-03 22:30N 31°51' W 080°52'2 4.1
2017-Dec-03 22:00N 31°53' W 080°51'2 4.0
2017-Dec-03 21:30N 31°55' W 080°50'2 4.2
2017-Dec-03 21:00N 31°56' W 080°48'2 4.3
2017-Dec-03 20:30N 31°58' W 080°47'2 4.0
2017-Dec-03 20:00N 31°60' W 080°48'2 4.0
2017-Dec-03 19:30N 32°02' W 080°49'2 4.1
2017-Dec-03 19:00N 32°03' W 080°50'2 4.2
2017-Dec-03 18:30N 32°05' W 080°50'2 4.5
2017-Dec-03 18:00N 32°08' W 080°50'0 0.2
2017-Dec-03 17:30N 32°08' W 080°49'0 0.0
2017-Dec-03 17:00N 32°08' W 080°49'0 0.0
2017-Dec-03 16:30N 32°08' W 080°49'0 0.0
2017-Dec-03 16:00N 32°08' W 080°49'0 0.0
2017-Dec-03 15:30N 32°08' W 080°49'0 0.6
2017-Dec-03 15:00N 32°08' W 080°49'0 0.0
2017-Dec-03 14:30N 32°08' W 080°49'0 0.0
2017-Dec-03 14:00N 32°08' W 080°49'0 0.0
2017-Dec-03 13:30N 32°08' W 080°49'0 0.0
2017-Dec-03 13:00N 32°08' W 080°49'0 0.0
2017-Dec-03 12:30N 32°08' W 080°49'0 0.0
2017-Dec-03 12:00N 32°08' W 080°49'0 0.0
2017-Dec-03 11:30N 32°08' W 080°49'0 0.0
2017-Dec-03 11:00N 32°08' W 080°49'0 0.0
2017-Dec-03 10:30N 32°08' W 080°49'0 0.0
2017-Dec-03 10:00N 32°08' W 080°49'0 0.0
2017-Dec-03 09:30N 32°08' W 080°49'0 0.0
2017-Dec-03 09:00N 32°08' W 080°49'0 0.0
2017-Dec-03 08:30N 32°08' W 080°49'0 0.0
2017-Dec-03 08:00N 32°08' W 080°49'0 0.0
2017-Dec-03 07:30N 32°08' W 080°49'0 0.0
2017-Dec-03 07:00N 32°08' W 080°49'0 0.0
2017-Dec-03 06:30N 32°08' W 080°49'0 0.0
2017-Dec-03 06:00N 32°08' W 080°49'0 0.0
2017-Dec-03 05:30N 32°08' W 080°49'0 0.0
2017-Dec-03 05:00N 32°08' W 080°49'0 0.0
2017-Dec-03 04:30N 32°08' W 080°49'0 0.0
2017-Dec-03 04:00N 32°08' W 080°49'0 0.0
2017-Dec-03 03:30N 32°08' W 080°49'0 0.0
2017-Dec-03 03:00N 32°08' W 080°49'0 0.0
2017-Dec-03 02:30N 32°08' W 080°49'0 0.0
2017-Dec-03 02:00N 32°08' W 080°49'0 0.0
2017-Dec-03 01:30N 32°08' W 080°49'0 0.0
2017-Dec-03 01:00N 32°08' W 080°49'0 0.0
2017-Dec-03 00:30N 32°08' W 080°49'0 0.0
2017-Dec-03 00:00N 32°08' W 080°49'0 0.0
2017-Dec-02 23:30N 32°08' W 080°49'0 0.0
2017-Dec-02 23:00N 32°08' W 080°49'0 0.0
2017-Dec-02 22:30N 32°08' W 080°49'0 0.0
2017-Dec-02 22:00N 32°08' W 080°49'0 0.0
2017-Dec-02 21:30N 32°08' W 080°49'0 0.0
2017-Dec-02 21:00N 32°08' W 080°49'0 0.0
2017-Dec-02 20:30N 32°08' W 080°49'0 0.1
2017-Dec-02 20:00N 32°08' W 080°49'0 0.1
2017-Dec-02 19:30N 32°08' W 080°49'0 0.0
2017-Dec-02 19:00N 32°08' W 080°49'0 0.0
2017-Dec-02 18:30N 32°08' W 080°49'0 0.1
2017-Dec-02 17:58N 32°08' W 080°49'0 0.0
2017-Dec-02 17:29N 32°08' W 080°49'0 0.0
2017-Dec-02 17:00N 32°08' W 080°49'0 0.0
2017-Dec-02 16:30N 32°08' W 080°49'0 0.3
2017-Dec-02 15:59N 32°08' W 080°49'0 0.6
2017-Dec-02 15:28N 32°07' W 080°50'1 1.1
2017-Dec-02 15:00N 32°08' W 080°49'0 0.0
2017-Dec-02 14:30N 32°08' W 080°49'0 0.0
2017-Dec-02 14:00N 32°08' W 080°49'0 0.0
2017-Dec-02 13:30N 32°08' W 080°49'0 0.0
2017-Dec-02 13:00N 32°08' W 080°49'0 0.0
2017-Dec-02 12:30N 32°08' W 080°49'0 0.0
2017-Dec-02 12:00N 32°08' W 080°49'0 0.0
2017-Dec-02 11:30N 32°08' W 080°49'0 0.0
2017-Dec-02 11:00N 32°08' W 080°49'0 0.0
2017-Dec-02 10:30N 32°08' W 080°49'0 0.0
2017-Dec-02 10:00N 32°08' W 080°49'0 0.0
2017-Dec-02 09:30N 32°08' W 080°49'0 0.0
2017-Dec-02 09:00N 32°08' W 080°49'0 0.0
2017-Dec-02 08:30N 32°08' W 080°49'0 0.0
2017-Dec-02 08:00N 32°08' W 080°49'0 0.0
2017-Dec-02 07:30N 32°08' W 080°49'0 0.0
2017-Dec-02 07:00N 32°08' W 080°49'0 0.0
2017-Dec-02 06:30N 32°08' W 080°49'0 0.0
2017-Dec-02 06:00N 32°08' W 080°49'0 0.0
2017-Dec-02 05:30N 32°08' W 080°49'0 0.0
2017-Dec-02 05:00N 32°08' W 080°49'0 0.0
2017-Dec-02 04:30N 32°08' W 080°49'0 0.0
2017-Dec-02 04:00N 32°08' W 080°49'0 0.0
2017-Dec-02 03:30N 32°08' W 080°49'0 0.0
2017-Dec-02 03:00N 32°08' W 080°49'0 0.0
2017-Dec-02 02:30N 32°08' W 080°49'0 0.0
2017-Dec-02 02:00N 32°08' W 080°49'0 0.0
2017-Dec-02 01:30N 32°08' W 080°49'0 0.0
2017-Dec-02 01:00N 32°08' W 080°49'0 0.0
2017-Dec-02 00:30N 32°08' W 080°49'0 0.0
2017-Dec-02 00:00N 32°08' W 080°49'0 0.0
2017-Dec-01 23:30N 32°08' W 080°49'2 3.2
2017-Dec-01 23:00N 32°09' W 080°51'3 6.7
2017-Dec-01 22:30N 32°07' W 080°54'3 6.3
2017-Dec-01 22:00N 32°05' W 080°56'3 6.9
2017-Dec-01 21:30N 32°06' W 081°00'2 4.4
2017-Dec-01 21:00N 32°05' W 081°03'1 1.5
2017-Dec-01 20:30N 32°05' W 081°03'1 1.9
2017-Dec-01 20:00N 32°05' W 081°04'1 2.3
2017-Dec-01 19:30N 32°05' W 081°06'0 0.0
2017-Dec-01 19:00N 32°05' W 081°06'0 0.0
2017-Dec-01 18:30N 32°05' W 081°06'0 0.0
2017-Dec-01 18:00N 32°05' W 081°06'1 1.9
2017-Dec-01 17:30N 32°06' W 081°07'0 0.0
2017-Dec-01 17:00N 32°06' W 081°07'0 0.0
2017-Dec-01 16:30N 32°06' W 081°07'1 1.9
2017-Dec-01 16:00N 32°05' W 081°06'1 2.6
2017-Dec-01 15:30N 32°05' W 081°04'3 6.8
2017-Dec-01 15:00N 32°06' W 081°00'3 6.4
2017-Dec-01 14:30N 32°05' W 080°57'3 6.8
2017-Dec-01 14:00N 32°07' W 080°54'3 6.4
2017-Dec-01 13:30N 32°09' W 080°51'2 3.6
2017-Dec-01 13:00N 32°08' W 080°49'0 0.0
2017-Dec-01 12:30N 32°08' W 080°49'0 0.0
2017-Dec-01 12:00N 32°08' W 080°49'0 0.0
2017-Dec-01 11:30N 32°08' W 080°49'0 0.0
2017-Dec-01 11:00N 32°08' W 080°49'0 0.0
2017-Dec-01 10:30N 32°08' W 080°49'0 0.0
2017-Dec-01 10:00N 32°08' W 080°49'0 0.0
2017-Dec-01 09:30N 32°08' W 080°49'0 0.0
2017-Dec-01 09:00N 32°08' W 080°49'0 0.0
2017-Dec-01 08:30N 32°08' W 080°49'0 0.0
2017-Dec-01 08:00N 32°08' W 080°49'0 0.0
2017-Dec-01 07:29N 32°08' W 080°49'0 0.0
2017-Dec-01 07:00N 32°08' W 080°49'0 0.0
2017-Dec-01 06:30N 32°08' W 080°49'0 0.0
2017-Dec-01 05:59N 32°08' W 080°49'0 0.0
2017-Dec-01 05:30N 32°08' W 080°49'0 0.0
2017-Dec-01 04:59N 32°08' W 080°49'0 0.0
2017-Dec-01 04:30N 32°08' W 080°49'0 0.0
2017-Dec-01 04:00N 32°08' W 080°49'0 0.0
2017-Dec-01 03:30N 32°08' W 080°49'0 0.0
2017-Dec-01 03:00N 32°08' W 080°49'0 0.0
2017-Dec-01 02:30N 32°08' W 080°49'0 0.0
2017-Dec-01 02:00N 32°08' W 080°49'0 0.0
2017-Dec-01 01:30N 32°08' W 080°49'0 0.0
2017-Dec-01 01:00N 32°08' W 080°49'0 0.0
2017-Dec-01 00:30N 32°08' W 080°49'0 0.0
2017-Dec-01 00:00N 32°08' W 080°49'0 0.0
2017-Nov-30 23:30N 32°08' W 080°49'0 0.0
2017-Nov-30 23:00N 32°08' W 080°49'0 0.0
2017-Nov-30 22:30N 32°08' W 080°49'0 0.0
2017-Nov-30 22:00N 32°08' W 080°49'0 0.3
2017-Nov-30 21:30N 32°08' W 080°49'0 0.3
2017-Nov-30 21:00N 32°08' W 080°49'0 0.9
2017-Nov-30 20:30N 32°08' W 080°50'0 0.5
2017-Nov-30 20:00N 32°07' W 080°50'0 0.5
2017-Nov-30 19:30N 32°07' W 080°50'1 1.2
2017-Nov-30 19:00N 32°08' W 080°49'0 0.5
2017-Nov-30 18:30N 32°08' W 080°49'0 0.1
2017-Nov-30 18:00N 32°08' W 080°49'0 0.1
2017-Nov-30 17:30N 32°08' W 080°49'0 0.0
2017-Nov-30 17:00N 32°08' W 080°49'0 0.0
2017-Nov-30 16:30N 32°08' W 080°49'0 0.0
2017-Nov-30 16:00N 32°08' W 080°49'0 0.0
2017-Nov-30 15:30N 32°08' W 080°49'0 0.3
2017-Nov-30 15:00N 32°08' W 080°49'0 0.0
2017-Nov-30 14:30N 32°08' W 080°49'0 0.0
2017-Nov-30 14:00N 32°08' W 080°49'0 0.0
2017-Nov-30 13:30N 32°08' W 080°49'0 0.0
2017-Nov-30 13:00N 32°08' W 080°49'0 0.0
2017-Nov-30 12:30N 32°08' W 080°49'0 0.0
2017-Nov-30 12:00N 32°08' W 080°49'0 0.0
2017-Nov-30 11:23N 32°08' W 080°49'0 0.0
2017-Nov-30 11:00N 32°08' W 080°49'0 0.0
2017-Nov-30 10:30N 32°08' W 080°49'0 0.0
2017-Nov-30 10:00N 32°08' W 080°49'0 0.0
2017-Nov-30 09:30N 32°08' W 080°49'0 0.0
2017-Nov-30 09:00N 32°08' W 080°49'0 0.0
2017-Nov-30 08:30N 32°08' W 080°49'0 0.0
2017-Nov-30 08:00N 32°08' W 080°49'0 0.0
2017-Nov-30 07:30N 32°08' W 080°49'0 0.0
2017-Nov-30 07:00N 32°08' W 080°49'0 0.0
2017-Nov-30 06:30N 32°08' W 080°49'0 0.0
2017-Nov-30 06:00N 32°08' W 080°49'0 0.0
2017-Nov-30 05:30N 32°08' W 080°49'0 0.0
2017-Nov-30 05:00N 32°08' W 080°49'0 0.0
2017-Nov-30 04:30N 32°08' W 080°49'0 0.0
2017-Nov-30 04:00N 32°08' W 080°49'0 0.0
2017-Nov-30 03:30N 32°08' W 080°49'0 0.0
2017-Nov-30 03:00N 32°08' W 080°49'0 0.0
2017-Nov-30 02:30N 32°08' W 080°49'0 0.0
2017-Nov-30 02:00N 32°08' W 080°49'0 0.0
2017-Nov-30 01:30N 32°08' W 080°49'0 0.0
2017-Nov-30 01:00N 32°08' W 080°49'0 0.0
2017-Nov-30 00:30N 32°08' W 080°49'0 0.0
2017-Nov-30 00:00N 32°08' W 080°49'0 0.0
2017-Nov-29 23:30N 32°08' W 080°49'0 0.0
2017-Nov-29 23:00N 32°08' W 080°49'0 0.0
2017-Nov-29 22:29N 32°08' W 080°49'0 0.0
2017-Nov-29 22:00N 32°08' W 080°49'0 0.0
2017-Nov-29 21:30N 32°08' W 080°49'0 0.0
2017-Nov-29 21:00N 32°08' W 080°49'0 0.2
2017-Nov-29 20:30N 32°08' W 080°49'1 1.1
2017-Nov-29 20:00N 32°07' W 080°50'0 0.5
2017-Nov-29 19:30N 32°08' W 080°49'0 0.2
2017-Nov-29 19:00N 32°08' W 080°50'0 0.1
2017-Nov-29 18:30N 32°08' W 080°50'0 0.0
2017-Nov-29 18:00N 32°08' W 080°50'0 0.2
2017-Nov-29 17:30N 32°07' W 080°50'0 0.0
2017-Nov-29 17:00N 32°07' W 080°50'0 0.0
2017-Nov-29 16:30N 32°07' W 080°50'0 0.3
2017-Nov-29 16:00N 32°07' W 080°50'0 0.2
2017-Nov-29 15:30N 32°07' W 080°50'1 1.1
2017-Nov-29 15:00N 32°08' W 080°49'0 0.0
2017-Nov-29 14:30N 32°08' W 080°49'0 0.0
2017-Nov-29 14:00N 32°08' W 080°49'0 0.3
2017-Nov-29 13:30N 32°08' W 080°49'0 0.0
2017-Nov-29 13:00N 32°08' W 080°49'1 1.3
2017-Nov-29 12:30N 32°07' W 080°50'1 1.3
2017-Nov-29 12:00N 32°08' W 080°49'0 0.0
2017-Nov-29 11:30N 32°08' W 080°49'0 0.0
2017-Nov-29 11:00N 32°08' W 080°49'0 0.0
2017-Nov-29 10:30N 32°08' W 080°49'0 0.0
2017-Nov-29 10:00N 32°08' W 080°49'0 0.0
2017-Nov-29 09:30N 32°08' W 080°49'0 0.0
2017-Nov-29 09:00N 32°08' W 080°49'0 0.0
2017-Nov-29 08:30N 32°08' W 080°49'0 0.0
2017-Nov-29 08:00N 32°08' W 080°49'0 0.0
2017-Nov-29 07:30N 32°08' W 080°49'0 0.0
2017-Nov-29 07:00N 32°08' W 080°49'0 0.0
2017-Nov-29 06:30N 32°08' W 080°49'0 0.0
2017-Nov-29 06:00N 32°08' W 080°49'0 0.0
2017-Nov-29 05:30N 32°08' W 080°49'0 0.0
2017-Nov-29 05:00N 32°08' W 080°49'0 0.0
2017-Nov-29 04:30N 32°08' W 080°49'0 0.0
2017-Nov-29 04:00N 32°08' W 080°49'0 0.0
2017-Nov-29 03:30N 32°08' W 080°49'0 0.0
2017-Nov-29 03:00N 32°08' W 080°49'0 0.0
2017-Nov-29 02:30N 32°08' W 080°49'0 0.0
2017-Nov-29 02:00N 32°08' W 080°49'0 0.0
2017-Nov-29 01:30N 32°08' W 080°49'0 0.0
2017-Nov-29 01:00N 32°08' W 080°49'0 0.0
2017-Nov-29 00:30N 32°08' W 080°49'0 0.0
2017-Nov-29 00:00N 32°08' W 080°49'0 0.0
2017-Nov-28 23:30N 32°08' W 080°49'0 0.0
2017-Nov-28 23:00N 32°08' W 080°49'0 0.0
2017-Nov-28 22:30N 32°08' W 080°49'0 0.0
2017-Nov-28 22:00N 32°08' W 080°49'0 0.0
2017-Nov-28 21:30N 32°08' W 080°49'0 0.0
2017-Nov-28 21:00N 32°08' W 080°49'0 0.0
2017-Nov-28 20:30N 32°08' W 080°49'0 0.0
2017-Nov-28 20:00N 32°08' W 080°49'0 0.2
2017-Nov-28 19:30N 32°08' W 080°49'0 0.1
2017-Nov-28 19:00N 32°08' W 080°49'0 0.0
2017-Nov-28 18:30N 32°08' W 080°49'0 0.0
2017-Nov-28 18:00N 32°08' W 080°49'0 0.0
2017-Nov-28 17:30N 32°08' W 080°49'0 0.0
2017-Nov-28 17:00N 32°08' W 080°49'0 0.0
2017-Nov-28 16:30N 32°08' W 080°49'0 0.0
2017-Nov-28 16:00N 32°08' W 080°49'0 0.0
2017-Nov-28 15:00N 32°08' W 080°49'0 0.0
2017-Nov-28 14:30N 32°08' W 080°49'0 0.0
2017-Nov-28 14:00N 32°08' W 080°49'0 0.0
2017-Nov-28 13:29N 32°08' W 080°49'0 0.0
2017-Nov-28 13:00N 32°08' W 080°49'0 0.3
2017-Nov-28 12:30N 32°08' W 080°49'0 0.0
2017-Nov-28 12:01N 32°08' W 080°49'0 0.0
2017-Nov-28 11:30N 32°08' W 080°49'0 0.0
2017-Nov-28 11:00N 32°08' W 080°49'0 0.0
2017-Nov-28 10:30N 32°08' W 080°49'0 0.0
2017-Nov-28 10:01N 32°08' W 080°49'0 0.0
2017-Nov-28 09:31N 32°08' W 080°49'0 0.0
2017-Nov-28 09:00N 32°08' W 080°49'0 0.0
2017-Nov-28 08:30N 32°08' W 080°49'0 0.0
2017-Nov-28 08:01N 32°08' W 080°49'0 0.0
2017-Nov-28 07:30N 32°08' W 080°49'0 0.0
2017-Nov-28 07:00N 32°08' W 080°49'0 0.0
2017-Nov-28 06:30N 32°08' W 080°49'0 0.0
2017-Nov-28 06:01N 32°08' W 080°49'0 0.0
2017-Nov-28 05:30N 32°08' W 080°49'0 0.0
2017-Nov-28 04:29N 32°08' W 080°49'0 0.0
2017-Nov-28 04:00N 32°08' W 080°49'0 0.0
2017-Nov-28 03:27N 32°08' W 080°49'0 0.0
2017-Nov-28 03:00N 32°08' W 080°49'0 0.0
2017-Nov-28 02:30N 32°08' W 080°49'0 0.0
2017-Nov-28 02:00N 32°08' W 080°49'0 0.0
2017-Nov-28 01:30N 32°08' W 080°49'0 0.0
2017-Nov-28 01:00N 32°08' W 080°49'0 0.0
2017-Nov-28 00:30N 32°08' W 080°49'0 0.0
2017-Nov-28 00:00N 32°08' W 080°49'0 0.0
2017-Nov-27 23:30N 32°08' W 080°49'0 0.0
2017-Nov-27 23:00N 32°08' W 080°49'0 0.0
2017-Nov-27 22:30N 32°08' W 080°49'0 0.0
2017-Nov-27 22:00N 32°08' W 080°49'0 0.0
2017-Nov-27 21:31N 32°08' W 080°49'0 0.0
2017-Nov-27 21:00N 32°08' W 080°49'0 0.0
2017-Nov-27 20:31N 32°08' W 080°49'0 0.3
2017-Nov-27 20:00N 32°08' W 080°49'0 0.3
2017-Nov-27 19:31N 32°08' W 080°49'0 0.4
2017-Nov-27 19:00N 32°08' W 080°49'0 0.0
2017-Nov-27 18:30N 32°08' W 080°49'0 0.0
2017-Nov-27 18:00N 32°08' W 080°49'0 0.3
2017-Nov-27 17:30N 32°08' W 080°49'0 0.2
2017-Nov-27 17:01N 32°08' W 080°49'0 0.8
2017-Nov-27 16:31N 32°08' W 080°50'1 1.1
2017-Nov-27 16:00N 32°08' W 080°49'0 0.5
2017-Nov-27 15:30N 32°08' W 080°49'0 0.0
2017-Nov-27 15:00N 32°08' W 080°49'0 0.1
2017-Nov-27 14:30N 32°08' W 080°49'2 4.0
2017-Nov-27 14:01N 32°06' W 080°50'1 2.8
2017-Nov-27 13:31N 32°05' W 080°49'1 1.8
2017-Nov-27 13:00N 32°06' W 080°49'2 4.6
2017-Nov-27 12:30N 32°08' W 080°49'0 0.0
2017-Nov-27 12:00N 32°08' W 080°49'0 0.0
2017-Nov-27 11:30N 32°08' W 080°49'0 0.0
2017-Nov-27 11:00N 32°08' W 080°49'0 0.0
2017-Nov-27 10:30N 32°08' W 080°49'0 0.0
2017-Nov-27 10:01N 32°08' W 080°49'0 0.0
2017-Nov-27 09:31N 32°08' W 080°49'0 0.0
2017-Nov-27 09:00N 32°08' W 080°49'0 0.0
2017-Nov-27 08:30N 32°08' W 080°49'0 0.0
2017-Nov-27 08:00N 32°08' W 080°49'0 0.0
2017-Nov-27 07:31N 32°08' W 080°49'0 0.0
2017-Nov-27 07:01N 32°08' W 080°49'0 0.0
2017-Nov-27 06:31N 32°08' W 080°49'0 0.0
2017-Nov-27 06:00N 32°08' W 080°49'0 0.0
2017-Nov-27 05:31N 32°08' W 080°49'0 0.0
2017-Nov-27 05:01N 32°08' W 080°49'0 0.0
2017-Nov-27 04:30N 32°08' W 080°49'0 0.0
2017-Nov-27 04:01N 32°08' W 080°49'0 0.0
2017-Nov-27 03:31N 32°08' W 080°49'0 0.0
2017-Nov-27 03:01N 32°08' W 080°49'0 0.0
2017-Nov-27 02:31N 32°08' W 080°49'0 0.0
2017-Nov-27 02:01N 32°08' W 080°49'0 0.0
2017-Nov-27 01:31N 32°08' W 080°49'0 0.0
2017-Nov-27 01:01N 32°08' W 080°49'0 0.0
2017-Nov-27 00:30N 32°08' W 080°49'0 0.0
2017-Nov-27 00:01N 32°08' W 080°49'0 0.0
2017-Nov-26 23:31N 32°08' W 080°49'0 0.0
2017-Nov-26 23:00N 32°08' W 080°49'0 0.0
2017-Nov-26 22:31N 32°08' W 080°49'0 0.0
2017-Nov-26 22:00N 32°08' W 080°49'0 0.0
2017-Nov-26 21:30N 32°08' W 080°49'0 0.0
2017-Nov-26 21:01N 32°08' W 080°49'0 1.0
2017-Nov-26 20:30N 32°07' W 080°50'1 1.5
2017-Nov-26 20:01N 32°08' W 080°49'2 4.6
2017-Nov-26 19:30N 32°06' W 080°50'1 2.9
2017-Nov-26 19:00N 32°05' W 080°49'0 0.0
2017-Nov-26 18:30N 32°05' W 080°49'0 0.1
2017-Nov-26 18:01N 32°05' W 080°49'0 0.8
2017-Nov-26 17:30N 32°05' W 080°49'2 4.8
2017-Nov-26 17:01N 32°07' W 080°50'0 0.9
2017-Nov-26 16:30N 32°08' W 080°49'0 0.0
2017-Nov-26 16:00N 32°08' W 080°49'0 0.0
2017-Nov-26 15:31N 32°08' W 080°49'0 0.0
2017-Nov-26 15:00N 32°08' W 080°49'0 0.7
2017-Nov-26 14:30N 32°08' W 080°50'0 0.2
2017-Nov-26 14:01N 32°08' W 080°50'2 3.9
2017-Nov-26 13:31N 32°06' W 080°50'1 1.8
2017-Nov-26 13:00N 32°05' W 080°49'3 5.3
2017-Nov-26 12:30N 32°07' W 080°50'0 0.9
2017-Nov-26 12:00N 32°08' W 080°49'0 0.0
2017-Nov-26 11:30N 32°08' W 080°49'0 0.0
2017-Nov-26 11:01N 32°08' W 080°49'0 0.0
2017-Nov-26 10:31N 32°08' W 080°49'0 0.0
2017-Nov-26 10:00N 32°08' W 080°49'0 0.0
2017-Nov-26 09:30N 32°08' W 080°49'0 0.0
2017-Nov-26 09:00N 32°08' W 080°49'0 0.0
2017-Nov-26 08:30N 32°08' W 080°49'0 0.0
2017-Nov-26 08:01N 32°08' W 080°49'0 0.0
2017-Nov-26 07:31N 32°08' W 080°49'0 0.0
2017-Nov-26 07:01N 32°08' W 080°49'0 0.0
2017-Nov-26 06:30N 32°08' W 080°49'0 0.0
2017-Nov-26 06:01N 32°08' W 080°49'0 0.0
2017-Nov-26 05:30N 32°08' W 080°49'0 0.0
2017-Nov-26 05:01N 32°08' W 080°49'0 0.0
2017-Nov-26 04:30N 32°08' W 080°49'0 0.0
2017-Nov-26 04:01N 32°08' W 080°49'0 0.0
2017-Nov-26 03:30N 32°08' W 080°49'0 0.0
2017-Nov-26 02:59N 32°08' W 080°49'0 0.0
2017-Nov-26 02:30N 32°08' W 080°49'0 0.0
2017-Nov-26 02:00N 32°08' W 080°49'0 0.0
2017-Nov-26 01:31N 32°08' W 080°49'0 0.0
2017-Nov-26 01:00N 32°08' W 080°49'0 0.0
2017-Nov-26 00:31N 32°08' W 080°49'0 0.0
2017-Nov-26 00:01N 32°08' W 080°49'0 0.0
2017-Nov-25 23:30N 32°08' W 080°49'0 0.0
2017-Nov-25 23:00N 32°08' W 080°49'0 0.0
2017-Nov-25 22:30N 32°08' W 080°49'0 0.0
2017-Nov-25 22:00N 32°08' W 080°49'0 0.0
2017-Nov-25 21:30N 32°08' W 080°49'0 0.0
2017-Nov-25 21:00N 32°08' W 080°49'0 0.0
2017-Nov-25 20:30N 32°08' W 080°49'0 0.8
2017-Nov-25 20:00N 32°07' W 080°50'0 0.9
2017-Nov-25 19:30N 32°08' W 080°49'0 0.6
2017-Nov-25 19:01N 32°08' W 080°49'0 0.0
2017-Nov-25 18:31N 32°08' W 080°49'0 0.4
2017-Nov-25 18:00N 32°07' W 080°50'1 2.1
2017-Nov-25 17:30N 32°06' W 080°50'1 2.3
2017-Nov-25 17:00N 32°06' W 080°48'0 0.2
2017-Nov-25 16:30N 32°06' W 080°48'0 0.6
2017-Nov-25 16:01N 32°06' W 080°49'2 3.6
2017-Nov-25 15:30N 32°08' W 080°49'0 0.0
2017-Nov-25 15:01N 32°08' W 080°49'0 0.0
2017-Nov-25 14:30N 32°08' W 080°49'0 0.0
2017-Nov-25 14:00N 32°08' W 080°49'0 0.0
2017-Nov-25 13:30N 32°08' W 080°49'0 0.0
2017-Nov-25 13:00N 32°08' W 080°49'0 0.0
2017-Nov-25 12:30N 32°08' W 080°49'0 0.0
2017-Nov-25 12:01N 32°08' W 080°49'0 0.0
2017-Nov-25 11:31N 32°08' W 080°49'0 0.0
2017-Nov-25 11:00N 32°08' W 080°49'0 0.0
2017-Nov-25 10:31N 32°08' W 080°49'0 0.0
2017-Nov-25 10:00N 32°08' W 080°49'0 0.0
2017-Nov-25 09:30N 32°08' W 080°49'0 0.0
2017-Nov-25 09:00N 32°08' W 080°49'0 0.0
2017-Nov-25 08:31N 32°08' W 080°49'0 0.0
2017-Nov-25 08:01N 32°08' W 080°49'0 0.0
2017-Nov-25 07:31N 32°08' W 080°49'0 0.0
2017-Nov-25 07:01N 32°08' W 080°49'0 0.0
2017-Nov-25 06:31N 32°08' W 080°49'0 0.0
2017-Nov-25 06:00N 32°08' W 080°49'0 0.0
2017-Nov-25 05:31N 32°08' W 080°49'0 0.0
2017-Nov-25 05:00N 32°08' W 080°49'0 0.0
2017-Nov-25 04:30N 32°08' W 080°49'0 0.0
2017-Nov-25 04:00N 32°08' W 080°49'0 0.0
2017-Nov-25 03:31N 32°08' W 080°49'0 0.0
2017-Nov-25 03:01N 32°08' W 080°49'0 0.0
2017-Nov-25 02:30N 32°08' W 080°49'0 0.0
2017-Nov-25 02:00N 32°08' W 080°49'0 0.0
2017-Nov-25 01:30N 32°08' W 080°49'0 0.0
2017-Nov-25 01:01N 32°08' W 080°49'0 0.0
2017-Nov-25 00:30N 32°08' W 080°49'0 0.0
2017-Nov-25 00:00N 32°08' W 080°49'0 0.0
2017-Nov-24 23:31N 32°08' W 080°49'0 0.0
2017-Nov-24 23:00N 32°08' W 080°49'0 0.0
2017-Nov-24 22:31N 32°08' W 080°49'0 0.0
2017-Nov-24 22:01N 32°08' W 080°49'0 0.0
2017-Nov-24 21:31N 32°08' W 080°49'0 0.0
2017-Nov-24 21:00N 32°08' W 080°49'0 0.0
2017-Nov-24 20:30N 32°08' W 080°49'0 0.0
2017-Nov-24 20:00N 32°08' W 080°49'0 0.0
2017-Nov-24 19:30N 32°08' W 080°49'0 0.0
2017-Nov-24 19:01N 32°08' W 080°49'0 0.0
2017-Nov-24 18:30N 32°08' W 080°49'0 0.0
2017-Nov-24 18:00N 32°08' W 080°49'0 0.0
2017-Nov-24 17:31N 32°08' W 080°49'0 0.0
2017-Nov-24 17:00N 32°08' W 080°49'0 0.4
2017-Nov-24 16:30N 32°08' W 080°49'0 0.1
2017-Nov-24 16:00N 32°08' W 080°49'0 0.2
2017-Nov-24 15:30N 32°08' W 080°49'0 0.5
2017-Nov-24 15:00N 32°08' W 080°49'0 0.0
2017-Nov-24 14:30N 32°08' W 080°49'0 0.1
2017-Nov-24 14:01N 32°08' W 080°49'0 0.0
2017-Nov-24 13:31N 32°08' W 080°49'0 0.0
2017-Nov-24 13:01N 32°08' W 080°49'0 0.0
2017-Nov-24 12:30N 32°08' W 080°49'0 0.0
2017-Nov-24 12:00N 32°08' W 080°49'0 0.0
2017-Nov-24 11:30N 32°08' W 080°49'0 0.0
2017-Nov-24 11:00N 32°08' W 080°49'0 0.0
2017-Nov-24 10:31N 32°08' W 080°49'0 0.0
2017-Nov-24 10:00N 32°08' W 080°49'0 0.0
2017-Nov-24 09:30N 32°08' W 080°49'0 0.0
2017-Nov-24 09:00N 32°08' W 080°49'0 0.0
2017-Nov-24 08:31N 32°08' W 080°49'0 0.0
2017-Nov-24 08:01N 32°08' W 080°49'0 0.0
2017-Nov-24 07:30N 32°08' W 080°49'0 0.0
2017-Nov-24 07:01N 32°08' W 080°49'0 0.0
2017-Nov-24 06:30N 32°08' W 080°49'0 0.0
2017-Nov-24 06:01N 32°08' W 080°49'0 0.0
2017-Nov-24 05:30N 32°08' W 080°49'0 0.0
2017-Nov-24 05:01N 32°08' W 080°49'0 0.0
2017-Nov-24 04:31N 32°08' W 080°49'0 0.0
2017-Nov-24 04:00N 32°08' W 080°49'0 0.0
2017-Nov-24 03:31N 32°08' W 080°49'0 0.0
2017-Nov-24 03:01N 32°08' W 080°49'0 0.0
2017-Nov-24 02:30N 32°08' W 080°49'0 0.0
2017-Nov-24 02:01N 32°08' W 080°49'0 0.0
2017-Nov-24 01:31N 32°08' W 080°49'0 0.0
2017-Nov-24 01:00N 32°08' W 080°49'0 0.0
2017-Nov-24 00:31N 32°08' W 080°49'0 0.0
2017-Nov-24 00:00N 32°08' W 080°49'0 0.0
2017-Nov-23 23:31N 32°08' W 080°49'0 0.0
2017-Nov-23 23:01N 32°08' W 080°49'  
Track history (hours):
 
Tides and Currents Weather Stations Pressure Air Temp Water Temp Dewpoint Dewpoint Depression Visibility Wind Speed Wind Dir Waves Ship Positions

Sega

Owner: MARINEX CONSTRUCTION, INC., CHARLESTON, SC. More information available from US FCC via Universal Licensing System and Coast Guard Vessel Documentation Center.

Last reported at 2017-Dec-03 22:31 UTC. Time now 2017-Dec-17 15:48 UTC.
Position N 31°51' W 080°52'.
Warning: this ship's position is 13 days out of date.

Length 21 m; draft 3 m.

Type: Tug. MMSI: 367142070.

Date/timePositionNaut miles runAvg speedWind from/ knotsBaromVisibWave heightAir tempDewpointWater temp
2017-Dec-03 22:31N 31°51' W 080°52'0 4.7
2017-Dec-03 22:30N 31°51' W 080°52'2 4.1
2017-Dec-03 22:00N 31°53' W 080°51'2 4.0
2017-Dec-03 21:30N 31°55' W 080°50'2 4.2
2017-Dec-03 21:00N 31°56' W 080°48'2 4.3
2017-Dec-03 20:30N 31°58' W 080°47'2 4.0
2017-Dec-03 20:00N 31°60' W 080°48'2 4.0
2017-Dec-03 19:30N 32°02' W 080°49'2 4.1
2017-Dec-03 19:00N 32°03' W 080°50'2 4.2
2017-Dec-03 18:30N 32°05' W 080°50'2 4.5
2017-Dec-03 18:00N 32°08' W 080°50'0 0.2
2017-Dec-03 17:30N 32°08' W 080°49'0 0.0
2017-Dec-03 17:00N 32°08' W 080°49'0 0.0
2017-Dec-03 16:30N 32°08' W 080°49'0 0.0
2017-Dec-03 16:00N 32°08' W 080°49'0 0.0
2017-Dec-03 15:30N 32°08' W 080°49'0 0.6
2017-Dec-03 15:00N 32°08' W 080°49'0 0.0
2017-Dec-03 14:30N 32°08' W 080°49'0 0.0
2017-Dec-03 14:00N 32°08' W 080°49'0 0.0
2017-Dec-03 13:30N 32°08' W 080°49'0 0.0
2017-Dec-03 13:00N 32°08' W 080°49'0 0.0
2017-Dec-03 12:30N 32°08' W 080°49'0 0.0
2017-Dec-03 12:00N 32°08' W 080°49'0 0.0
2017-Dec-03 11:30N 32°08' W 080°49'0 0.0
2017-Dec-03 11:00N 32°08' W 080°49'0 0.0
2017-Dec-03 10:30N 32°08' W 080°49'0 0.0
2017-Dec-03 10:00N 32°08' W 080°49'0 0.0
2017-Dec-03 09:30N 32°08' W 080°49'0 0.0
2017-Dec-03 09:00N 32°08' W 080°49'0 0.0
2017-Dec-03 08:30N 32°08' W 080°49'0 0.0
2017-Dec-03 08:00N 32°08' W 080°49'0 0.0
2017-Dec-03 07:30N 32°08' W 080°49'0 0.0
2017-Dec-03 07:00N 32°08' W 080°49'0 0.0
2017-Dec-03 06:30N 32°08' W 080°49'0 0.0
2017-Dec-03 06:00N 32°08' W 080°49'0 0.0
2017-Dec-03 05:30N 32°08' W 080°49'0 0.0
2017-Dec-03 05:00N 32°08' W 080°49'0 0.0
2017-Dec-03 04:30N 32°08' W 080°49'0 0.0
2017-Dec-03 04:00N 32°08' W 080°49'0 0.0
2017-Dec-03 03:30N 32°08' W 080°49'0 0.0
2017-Dec-03 03:00N 32°08' W 080°49'0 0.0
2017-Dec-03 02:30N 32°08' W 080°49'0 0.0
2017-Dec-03 02:00N 32°08' W 080°49'0 0.0
2017-Dec-03 01:30N 32°08' W 080°49'0 0.0
2017-Dec-03 01:00N 32°08' W 080°49'0 0.0
2017-Dec-03 00:30N 32°08' W 080°49'0 0.0
2017-Dec-03 00:00N 32°08' W 080°49'0 0.0
2017-Dec-02 23:30N 32°08' W 080°49'0 0.0
2017-Dec-02 23:00N 32°08' W 080°49'0 0.0
2017-Dec-02 22:30N 32°08' W 080°49'0 0.0
2017-Dec-02 22:00N 32°08' W 080°49'0 0.0
2017-Dec-02 21:30N 32°08' W 080°49'0 0.0
2017-Dec-02 21:00N 32°08' W 080°49'0 0.0
2017-Dec-02 20:30N 32°08' W 080°49'0 0.1
2017-Dec-02 20:00N 32°08' W 080°49'0 0.1
2017-Dec-02 19:30N 32°08' W 080°49'0 0.0
2017-Dec-02 19:00N 32°08' W 080°49'0 0.0
2017-Dec-02 18:30N 32°08' W 080°49'0 0.1
2017-Dec-02 17:58N 32°08' W 080°49'0 0.0
2017-Dec-02 17:29N 32°08' W 080°49'0 0.0
2017-Dec-02 17:00N 32°08' W 080°49'0 0.0
2017-Dec-02 16:30N 32°08' W 080°49'0 0.3
2017-Dec-02 15:59N 32°08' W 080°49'0 0.6
2017-Dec-02 15:28N 32°07' W 080°50'1 1.1
2017-Dec-02 15:00N 32°08' W 080°49'0 0.0
2017-Dec-02 14:30N 32°08' W 080°49'0 0.0
2017-Dec-02 14:00N 32°08' W 080°49'0 0.0
2017-Dec-02 13:30N 32°08' W 080°49'0 0.0
2017-Dec-02 13:00N 32°08' W 080°49'0 0.0
2017-Dec-02 12:30N 32°08' W 080°49'0 0.0
2017-Dec-02 12:00N 32°08' W 080°49'0 0.0
2017-Dec-02 11:30N 32°08' W 080°49'0 0.0
2017-Dec-02 11:00N 32°08' W 080°49'0 0.0
2017-Dec-02 10:30N 32°08' W 080°49'0 0.0
2017-Dec-02 10:00N 32°08' W 080°49'0 0.0
2017-Dec-02 09:30N 32°08' W 080°49'0 0.0
2017-Dec-02 09:00N 32°08' W 080°49'0 0.0
2017-Dec-02 08:30N 32°08' W 080°49'0 0.0
2017-Dec-02 08:00N 32°08' W 080°49'0 0.0
2017-Dec-02 07:30N 32°08' W 080°49'0 0.0
2017-Dec-02 07:00N 32°08' W 080°49'0 0.0
2017-Dec-02 06:30N 32°08' W 080°49'0 0.0
2017-Dec-02 06:00N 32°08' W 080°49'0 0.0
2017-Dec-02 05:30N 32°08' W 080°49'0 0.0
2017-Dec-02 05:00N 32°08' W 080°49'0 0.0
2017-Dec-02 04:30N 32°08' W 080°49'0 0.0
2017-Dec-02 04:00N 32°08' W 080°49'0 0.0
2017-Dec-02 03:30N 32°08' W 080°49'0 0.0
2017-Dec-02 03:00N 32°08' W 080°49'0 0.0
2017-Dec-02 02:30N 32°08' W 080°49'0 0.0
2017-Dec-02 02:00N 32°08' W 080°49'0 0.0
2017-Dec-02 01:30N 32°08' W 080°49'0 0.0
2017-Dec-02 01:00N 32°08' W 080°49'0 0.0
2017-Dec-02 00:30N 32°08' W 080°49'0 0.0
2017-Dec-02 00:00N 32°08' W 080°49'0 0.0
2017-Dec-01 23:30N 32°08' W 080°49'2 3.2
2017-Dec-01 23:00N 32°09' W 080°51'3 6.7
2017-Dec-01 22:30N 32°07' W 080°54'3 6.3
2017-Dec-01 22:00N 32°05' W 080°56'3 6.9
2017-Dec-01 21:30N 32°06' W 081°00'2 4.4
2017-Dec-01 21:00N 32°05' W 081°03'1 1.5
2017-Dec-01 20:30N 32°05' W 081°03'1 1.9
2017-Dec-01 20:00N 32°05' W 081°04'1 2.3
2017-Dec-01 19:30N 32°05' W 081°06'0 0.0
2017-Dec-01 19:00N 32°05' W 081°06'0 0.0
2017-Dec-01 18:30N 32°05' W 081°06'0 0.0
2017-Dec-01 18:00N 32°05' W 081°06'1 1.9
2017-Dec-01 17:30N 32°06' W 081°07'0 0.0
2017-Dec-01 17:00N 32°06' W 081°07'0 0.0
2017-Dec-01 16:30N 32°06' W 081°07'1 1.9
2017-Dec-01 16:00N 32°05' W 081°06'1 2.6
2017-Dec-01 15:30N 32°05' W 081°04'3 6.8
2017-Dec-01 15:00N 32°06' W 081°00'3 6.4
2017-Dec-01 14:30N 32°05' W 080°57'3 6.8
2017-Dec-01 14:00N 32°07' W 080°54'3 6.4
2017-Dec-01 13:30N 32°09' W 080°51'2 3.6
2017-Dec-01 13:00N 32°08' W 080°49'0 0.0
2017-Dec-01 12:30N 32°08' W 080°49'0 0.0
2017-Dec-01 12:00N 32°08' W 080°49'0 0.0
2017-Dec-01 11:30N 32°08' W 080°49'0 0.0
2017-Dec-01 11:00N 32°08' W 080°49'0 0.0
2017-Dec-01 10:30N 32°08' W 080°49'0 0.0
2017-Dec-01 10:00N 32°08' W 080°49'0 0.0
2017-Dec-01 09:30N 32°08' W 080°49'0 0.0
2017-Dec-01 09:00N 32°08' W 080°49'0 0.0
2017-Dec-01 08:30N 32°08' W 080°49'0 0.0
2017-Dec-01 08:00N 32°08' W 080°49'0 0.0
2017-Dec-01 07:29N 32°08' W 080°49'0 0.0
2017-Dec-01 07:00N 32°08' W 080°49'0 0.0
2017-Dec-01 06:30N 32°08' W 080°49'0 0.0
2017-Dec-01 05:59N 32°08' W 080°49'0 0.0
2017-Dec-01 05:30N 32°08' W 080°49'0 0.0
2017-Dec-01 04:59N 32°08' W 080°49'0 0.0
2017-Dec-01 04:30N 32°08' W 080°49'0 0.0
2017-Dec-01 04:00N 32°08' W 080°49'0 0.0
2017-Dec-01 03:30N 32°08' W 080°49'0 0.0
2017-Dec-01 03:00N 32°08' W 080°49'0 0.0
2017-Dec-01 02:30N 32°08' W 080°49'0 0.0
2017-Dec-01 02:00N 32°08' W 080°49'0 0.0
2017-Dec-01 01:30N 32°08' W 080°49'0 0.0
2017-Dec-01 01:00N 32°08' W 080°49'0 0.0
2017-Dec-01 00:30N 32°08' W 080°49'0 0.0
2017-Dec-01 00:00N 32°08' W 080°49'0 0.0
2017-Nov-30 23:30N 32°08' W 080°49'0 0.0
2017-Nov-30 23:00N 32°08' W 080°49'0 0.0
2017-Nov-30 22:30N 32°08' W 080°49'0 0.0
2017-Nov-30 22:00N 32°08' W 080°49'0 0.3
2017-Nov-30 21:30N 32°08' W 080°49'0 0.3
2017-Nov-30 21:00N 32°08' W 080°49'0 0.9
2017-Nov-30 20:30N 32°08' W 080°50'0 0.5
2017-Nov-30 20:00N 32°07' W 080°50'0 0.5
2017-Nov-30 19:30N 32°07' W 080°50'1 1.2
2017-Nov-30 19:00N 32°08' W 080°49'0 0.5
2017-Nov-30 18:30N 32°08' W 080°49'0 0.1
2017-Nov-30 18:00N 32°08' W 080°49'0 0.1
2017-Nov-30 17:30N 32°08' W 080°49'0 0.0
2017-Nov-30 17:00N 32°08' W 080°49'0 0.0
2017-Nov-30 16:30N 32°08' W 080°49'0 0.0
2017-Nov-30 16:00N 32°08' W 080°49'0 0.0
2017-Nov-30 15:30N 32°08' W 080°49'0 0.3
2017-Nov-30 15:00N 32°08' W 080°49'0 0.0
2017-Nov-30 14:30N 32°08' W 080°49'0 0.0
2017-Nov-30 14:00N 32°08' W 080°49'0 0.0
2017-Nov-30 13:30N 32°08' W 080°49'0 0.0
2017-Nov-30 13:00N 32°08' W 080°49'0 0.0
2017-Nov-30 12:30N 32°08' W 080°49'0 0.0
2017-Nov-30 12:00N 32°08' W 080°49'0 0.0
2017-Nov-30 11:23N 32°08' W 080°49'0 0.0
2017-Nov-30 11:00N 32°08' W 080°49'0 0.0
2017-Nov-30 10:30N 32°08' W 080°49'0 0.0
2017-Nov-30 10:00N 32°08' W 080°49'0 0.0
2017-Nov-30 09:30N 32°08' W 080°49'0 0.0
2017-Nov-30 09:00N 32°08' W 080°49'0 0.0
2017-Nov-30 08:30N 32°08' W 080°49'0 0.0
2017-Nov-30 08:00N 32°08' W 080°49'0 0.0
2017-Nov-30 07:30N 32°08' W 080°49'0 0.0
2017-Nov-30 07:00N 32°08' W 080°49'0 0.0
2017-Nov-30 06:30N 32°08' W 080°49'0 0.0
2017-Nov-30 06:00N 32°08' W 080°49'0 0.0
2017-Nov-30 05:30N 32°08' W 080°49'0 0.0
2017-Nov-30 05:00N 32°08' W 080°49'0 0.0
2017-Nov-30 04:30N 32°08' W 080°49'0 0.0
2017-Nov-30 04:00N 32°08' W 080°49'0 0.0
2017-Nov-30 03:30N 32°08' W 080°49'0 0.0
2017-Nov-30 03:00N 32°08' W 080°49'0 0.0
2017-Nov-30 02:30N 32°08' W 080°49'0 0.0
2017-Nov-30 02:00N 32°08' W 080°49'0 0.0
2017-Nov-30 01:30N 32°08' W 080°49'0 0.0
2017-Nov-30 01:00N 32°08' W 080°49'0 0.0
2017-Nov-30 00:30N 32°08' W 080°49'0 0.0
2017-Nov-30 00:00N 32°08' W 080°49'0 0.0
2017-Nov-29 23:30N 32°08' W 080°49'0 0.0
2017-Nov-29 23:00N 32°08' W 080°49'0 0.0
2017-Nov-29 22:29N 32°08' W 080°49'0 0.0
2017-Nov-29 22:00N 32°08' W 080°49'0 0.0
2017-Nov-29 21:30N 32°08' W 080°49'0 0.0
2017-Nov-29 21:00N 32°08' W 080°49'0 0.2
2017-Nov-29 20:30N 32°08' W 080°49'1 1.1
2017-Nov-29 20:00N 32°07' W 080°50'0 0.5
2017-Nov-29 19:30N 32°08' W 080°49'0 0.2
2017-Nov-29 19:00N 32°08' W 080°50'0 0.1
2017-Nov-29 18:30N 32°08' W 080°50'0 0.0
2017-Nov-29 18:00N 32°08' W 080°50'0 0.2
2017-Nov-29 17:30N 32°07' W 080°50'0 0.0
2017-Nov-29 17:00N 32°07' W 080°50'0 0.0
2017-Nov-29 16:30N 32°07' W 080°50'0 0.3
2017-Nov-29 16:00N 32°07' W 080°50'0 0.2
2017-Nov-29 15:30N 32°07' W 080°50'1 1.1
2017-Nov-29 15:00N 32°08' W 080°49'0 0.0
2017-Nov-29 14:30N 32°08' W 080°49'0 0.0
2017-Nov-29 14:00N 32°08' W 080°49'0 0.3
2017-Nov-29 13:30N 32°08' W 080°49'0 0.0
2017-Nov-29 13:00N 32°08' W 080°49'1 1.3
2017-Nov-29 12:30N 32°07' W 080°50'1 1.3
2017-Nov-29 12:00N 32°08' W 080°49'0 0.0
2017-Nov-29 11:30N 32°08' W 080°49'0 0.0
2017-Nov-29 11:00N 32°08' W 080°49'0 0.0
2017-Nov-29 10:30N 32°08' W 080°49'0 0.0
2017-Nov-29 10:00N 32°08' W 080°49'0 0.0
2017-Nov-29 09:30N 32°08' W 080°49'0 0.0
2017-Nov-29 09:00N 32°08' W 080°49'0 0.0
2017-Nov-29 08:30N 32°08' W 080°49'0 0.0
2017-Nov-29 08:00N 32°08' W 080°49'0 0.0
2017-Nov-29 07:30N 32°08' W 080°49'0 0.0
2017-Nov-29 07:00N 32°08' W 080°49'0 0.0
2017-Nov-29 06:30N 32°08' W 080°49'0 0.0
2017-Nov-29 06:00N 32°08' W 080°49'0 0.0
2017-Nov-29 05:30N 32°08' W 080°49'0 0.0
2017-Nov-29 05:00N 32°08' W 080°49'0 0.0
2017-Nov-29 04:30N 32°08' W 080°49'0 0.0
2017-Nov-29 04:00N 32°08' W 080°49'0 0.0
2017-Nov-29 03:30N 32°08' W 080°49'0 0.0
2017-Nov-29 03:00N 32°08' W 080°49'0 0.0
2017-Nov-29 02:30N 32°08' W 080°49'0 0.0
2017-Nov-29 02:00N 32°08' W 080°49'0 0.0
2017-Nov-29 01:30N 32°08' W 080°49'0 0.0
2017-Nov-29 01:00N 32°08' W 080°49'0 0.0
2017-Nov-29 00:30N 32°08' W 080°49'0 0.0
2017-Nov-29 00:00N 32°08' W 080°49'0 0.0
2017-Nov-28 23:30N 32°08' W 080°49'0 0.0
2017-Nov-28 23:00N 32°08' W 080°49'0 0.0
2017-Nov-28 22:30N 32°08' W 080°49'0 0.0
2017-Nov-28 22:00N 32°08' W 080°49'0 0.0
2017-Nov-28 21:30N 32°08' W 080°49'0 0.0
2017-Nov-28 21:00N 32°08' W 080°49'0 0.0
2017-Nov-28 20:30N 32°08' W 080°49'0 0.0
2017-Nov-28 20:00N 32°08' W 080°49'0 0.2
2017-Nov-28 19:30N 32°08' W 080°49'0 0.1
2017-Nov-28 19:00N 32°08' W 080°49'0 0.0
2017-Nov-28 18:30N 32°08' W 080°49'0 0.0
2017-Nov-28 18:00N 32°08' W 080°49'0 0.0
2017-Nov-28 17:30N 32°08' W 080°49'0 0.0
2017-Nov-28 17:00N 32°08' W 080°49'0 0.0
2017-Nov-28 16:30N 32°08' W 080°49'0 0.0
2017-Nov-28 16:00N 32°08' W 080°49'0 0.0
2017-Nov-28 15:00N 32°08' W 080°49'0 0.0
2017-Nov-28 14:30N 32°08' W 080°49'0 0.0
2017-Nov-28 14:00N 32°08' W 080°49'0 0.0
2017-Nov-28 13:29N 32°08' W 080°49'0 0.0
2017-Nov-28 13:00N 32°08' W 080°49'0 0.3
2017-Nov-28 12:30N 32°08' W 080°49'0 0.0
2017-Nov-28 12:01N 32°08' W 080°49'0 0.0
2017-Nov-28 11:30N 32°08' W 080°49'0 0.0
2017-Nov-28 11:00N 32°08' W 080°49'0 0.0
2017-Nov-28 10:30N 32°08' W 080°49'0 0.0
2017-Nov-28 10:01N 32°08' W 080°49'0 0.0
2017-Nov-28 09:31N 32°08' W 080°49'0 0.0
2017-Nov-28 09:00N 32°08' W 080°49'0 0.0
2017-Nov-28 08:30N 32°08' W 080°49'0 0.0
2017-Nov-28 08:01N 32°08' W 080°49'0 0.0
2017-Nov-28 07:30N 32°08' W 080°49'0 0.0
2017-Nov-28 07:00N 32°08' W 080°49'0 0.0
2017-Nov-28 06:30N 32°08' W 080°49'0 0.0
2017-Nov-28 06:01N 32°08' W 080°49'0 0.0
2017-Nov-28 05:30N 32°08' W 080°49'0 0.0
2017-Nov-28 04:29N 32°08' W 080°49'0 0.0
2017-Nov-28 04:00N 32°08' W 080°49'0 0.0
2017-Nov-28 03:27N 32°08' W 080°49'0 0.0
2017-Nov-28 03:00N 32°08' W 080°49'0 0.0
2017-Nov-28 02:30N 32°08' W 080°49'0 0.0
2017-Nov-28 02:00N 32°08' W 080°49'0 0.0
2017-Nov-28 01:30N 32°08' W 080°49'0 0.0
2017-Nov-28 01:00N 32°08' W 080°49'0 0.0
2017-Nov-28 00:30N 32°08' W 080°49'0 0.0
2017-Nov-28 00:00N 32°08' W 080°49'0 0.0
2017-Nov-27 23:30N 32°08' W 080°49'0 0.0
2017-Nov-27 23:00N 32°08' W 080°49'0 0.0
2017-Nov-27 22:30N 32°08' W 080°49'0 0.0
2017-Nov-27 22:00N 32°08' W 080°49'0 0.0
2017-Nov-27 21:31N 32°08' W 080°49'0 0.0
2017-Nov-27 21:00N 32°08' W 080°49'0 0.0
2017-Nov-27 20:31N 32°08' W 080°49'0 0.3
2017-Nov-27 20:00N 32°08' W 080°49'0 0.3
2017-Nov-27 19:31N 32°08' W 080°49'0 0.4
2017-Nov-27 19:00N 32°08' W 080°49'0 0.0
2017-Nov-27 18:30N 32°08' W 080°49'0 0.0
2017-Nov-27 18:00N 32°08' W 080°49'0 0.3
2017-Nov-27 17:30N 32°08' W 080°49'0 0.2
2017-Nov-27 17:01N 32°08' W 080°49'0 0.8
2017-Nov-27 16:31N 32°08' W 080°50'1 1.1
2017-Nov-27 16:00N 32°08' W 080°49'0 0.5
2017-Nov-27 15:30N 32°08' W 080°49'0 0.0
2017-Nov-27 15:00N 32°08' W 080°49'0 0.1
2017-Nov-27 14:30N 32°08' W 080°49'2 4.0
2017-Nov-27 14:01N 32°06' W 080°50'1 2.8
2017-Nov-27 13:31N 32°05' W 080°49'1 1.8
2017-Nov-27 13:00N 32°06' W 080°49'2 4.6
2017-Nov-27 12:30N 32°08' W 080°49'0 0.0
2017-Nov-27 12:00N 32°08' W 080°49'0 0.0
2017-Nov-27 11:30N 32°08' W 080°49'0 0.0
2017-Nov-27 11:00N 32°08' W 080°49'0 0.0
2017-Nov-27 10:30N 32°08' W 080°49'0 0.0
2017-Nov-27 10:01N 32°08' W 080°49'0 0.0
2017-Nov-27 09:31N 32°08' W 080°49'0 0.0
2017-Nov-27 09:00N 32°08' W 080°49'0 0.0
2017-Nov-27 08:30N 32°08' W 080°49'0 0.0
2017-Nov-27 08:00N 32°08' W 080°49'0 0.0
2017-Nov-27 07:31N 32°08' W 080°49'0 0.0
2017-Nov-27 07:01N 32°08' W 080°49'0 0.0
2017-Nov-27 06:31N 32°08' W 080°49'0 0.0
2017-Nov-27 06:00N 32°08' W 080°49'0 0.0
2017-Nov-27 05:31N 32°08' W 080°49'0 0.0
2017-Nov-27 05:01N 32°08' W 080°49'0 0.0
2017-Nov-27 04:30N 32°08' W 080°49'0 0.0
2017-Nov-27 04:01N 32°08' W 080°49'0 0.0
2017-Nov-27 03:31N 32°08' W 080°49'0 0.0
2017-Nov-27 03:01N 32°08' W 080°49'0 0.0
2017-Nov-27 02:31N 32°08' W 080°49'0 0.0
2017-Nov-27 02:01N 32°08' W 080°49'0 0.0
2017-Nov-27 01:31N 32°08' W 080°49'0 0.0
2017-Nov-27 01:01N 32°08' W 080°49'0 0.0
2017-Nov-27 00:30N 32°08' W 080°49'0 0.0
2017-Nov-27 00:01N 32°08' W 080°49'0 0.0
2017-Nov-26 23:31N 32°08' W 080°49'0 0.0
2017-Nov-26 23:00N 32°08' W 080°49'0 0.0
2017-Nov-26 22:31N 32°08' W 080°49'0 0.0
2017-Nov-26 22:00N 32°08' W 080°49'0 0.0
2017-Nov-26 21:30N 32°08' W 080°49'0 0.0
2017-Nov-26 21:01N 32°08' W 080°49'0 1.0
2017-Nov-26 20:30N 32°07' W 080°50'1 1.5
2017-Nov-26 20:01N 32°08' W 080°49'2 4.6
2017-Nov-26 19:30N 32°06' W 080°50'1 2.9
2017-Nov-26 19:00N 32°05' W 080°49'0 0.0
2017-Nov-26 18:30N 32°05' W 080°49'0 0.1
2017-Nov-26 18:01N 32°05' W 080°49'0 0.8
2017-Nov-26 17:30N 32°05' W 080°49'2 4.8
2017-Nov-26 17:01N 32°07' W 080°50'0 0.9
2017-Nov-26 16:30N 32°08' W 080°49'0 0.0
2017-Nov-26 16:00N 32°08' W 080°49'0 0.0
2017-Nov-26 15:31N 32°08' W 080°49'0 0.0
2017-Nov-26 15:00N 32°08' W 080°49'0 0.7
2017-Nov-26 14:30N 32°08' W 080°50'0 0.2
2017-Nov-26 14:01N 32°08' W 080°50'2 3.9
2017-Nov-26 13:31N 32°06' W 080°50'1 1.8
2017-Nov-26 13:00N 32°05' W 080°49'3 5.3
2017-Nov-26 12:30N 32°07' W 080°50'0 0.9
2017-Nov-26 12:00N 32°08' W 080°49'0 0.0
2017-Nov-26 11:30N 32°08' W 080°49'0 0.0
2017-Nov-26 11:01N 32°08' W 080°49'0 0.0
2017-Nov-26 10:31N 32°08' W 080°49'0 0.0
2017-Nov-26 10:00N 32°08' W 080°49'0 0.0
2017-Nov-26 09:30N 32°08' W 080°49'0 0.0
2017-Nov-26 09:00N 32°08' W 080°49'0 0.0
2017-Nov-26 08:30N 32°08' W 080°49'0 0.0
2017-Nov-26 08:01N 32°08' W 080°49'0 0.0
2017-Nov-26 07:31N 32°08' W 080°49'0 0.0
2017-Nov-26 07:01N 32°08' W 080°49'0 0.0
2017-Nov-26 06:30N 32°08' W 080°49'0 0.0
2017-Nov-26 06:01N 32°08' W 080°49'0 0.0
2017-Nov-26 05:30N 32°08' W 080°49'0 0.0
2017-Nov-26 05:01N 32°08' W 080°49'0 0.0
2017-Nov-26 04:30N 32°08' W 080°49'0 0.0
2017-Nov-26 04:01N 32°08' W 080°49'0 0.0
2017-Nov-26 03:30N 32°08' W 080°49'0 0.0
2017-Nov-26 02:59N 32°08' W 080°49'0 0.0
2017-Nov-26 02:30N 32°08' W 080°49'0 0.0
2017-Nov-26 02:00N 32°08' W 080°49'0 0.0
2017-Nov-26 01:31N 32°08' W 080°49'0 0.0
2017-Nov-26 01:00N 32°08' W 080°49'0 0.0
2017-Nov-26 00:31N 32°08' W 080°49'0 0.0
2017-Nov-26 00:01N 32°08' W 080°49'0 0.0
2017-Nov-25 23:30N 32°08' W 080°49'0 0.0
2017-Nov-25 23:00N 32°08' W 080°49'0 0.0
2017-Nov-25 22:30N 32°08' W 080°49'0 0.0
2017-Nov-25 22:00N 32°08' W 080°49'0 0.0
2017-Nov-25 21:30N 32°08' W 080°49'0 0.0
2017-Nov-25 21:00N 32°08' W 080°49'0 0.0
2017-Nov-25 20:30N 32°08' W 080°49'0 0.8
2017-Nov-25 20:00N 32°07' W 080°50'0 0.9
2017-Nov-25 19:30N 32°08' W 080°49'0 0.6
2017-Nov-25 19:01N 32°08' W 080°49'0 0.0
2017-Nov-25 18:31N 32°08' W 080°49'0 0.4
2017-Nov-25 18:00N 32°07' W 080°50'1 2.1
2017-Nov-25 17:30N 32°06' W 080°50'1 2.3
2017-Nov-25 17:00N 32°06' W 080°48'0 0.2
2017-Nov-25 16:30N 32°06' W 080°48'0 0.6
2017-Nov-25 16:01N 32°06' W 080°49'2 3.6
2017-Nov-25 15:30N 32°08' W 080°49'0 0.0
2017-Nov-25 15:01N 32°08' W 080°49'0 0.0
2017-Nov-25 14:30N 32°08' W 080°49'0 0.0
2017-Nov-25 14:00N 32°08' W 080°49'0 0.0
2017-Nov-25 13:30N 32°08' W 080°49'0 0.0
2017-Nov-25 13:00N 32°08' W 080°49'0 0.0
2017-Nov-25 12:30N 32°08' W 080°49'0 0.0
2017-Nov-25 12:01N 32°08' W 080°49'0 0.0
2017-Nov-25 11:31N 32°08' W 080°49'0 0.0
2017-Nov-25 11:00N 32°08' W 080°49'0 0.0
2017-Nov-25 10:31N 32°08' W 080°49'0 0.0
2017-Nov-25 10:00N 32°08' W 080°49'0 0.0
2017-Nov-25 09:30N 32°08' W 080°49'0 0.0
2017-Nov-25 09:00N 32°08' W 080°49'0 0.0
2017-Nov-25 08:31N 32°08' W 080°49'0 0.0
2017-Nov-25 08:01N 32°08' W 080°49'0 0.0
2017-Nov-25 07:31N 32°08' W 080°49'0 0.0
2017-Nov-25 07:01N 32°08' W 080°49'0 0.0
2017-Nov-25 06:31N 32°08' W 080°49'0 0.0
2017-Nov-25 06:00N 32°08' W 080°49'0 0.0
2017-Nov-25 05:31N 32°08' W 080°49'0 0.0
2017-Nov-25 05:00N 32°08' W 080°49'0 0.0
2017-Nov-25 04:30N 32°08' W 080°49'0 0.0
2017-Nov-25 04:00N 32°08' W 080°49'0 0.0
2017-Nov-25 03:31N 32°08' W 080°49'0 0.0
2017-Nov-25 03:01N 32°08' W 080°49'0 0.0
2017-Nov-25 02:30N 32°08' W 080°49'0 0.0
2017-Nov-25 02:00N 32°08' W 080°49'0 0.0
2017-Nov-25 01:30N 32°08' W 080°49'0 0.0
2017-Nov-25 01:01N 32°08' W 080°49'0 0.0
2017-Nov-25 00:30N 32°08' W 080°49'0 0.0
2017-Nov-25 00:00N 32°08' W 080°49'0 0.0
2017-Nov-24 23:31N 32°08' W 080°49'0 0.0
2017-Nov-24 23:00N 32°08' W 080°49'0 0.0
2017-Nov-24 22:31N 32°08' W 080°49'0 0.0
2017-Nov-24 22:01N 32°08' W 080°49'0 0.0
2017-Nov-24 21:31N 32°08' W 080°49'0 0.0
2017-Nov-24 21:00N 32°08' W 080°49'0 0.0
2017-Nov-24 20:30N 32°08' W 080°49'0 0.0
2017-Nov-24 20:00N 32°08' W 080°49'0 0.0
2017-Nov-24 19:30N 32°08' W 080°49'0 0.0
2017-Nov-24 19:01N 32°08' W 080°49'0 0.0
2017-Nov-24 18:30N 32°08' W 080°49'0 0.0
2017-Nov-24 18:00N 32°08' W 080°49'0 0.0
2017-Nov-24 17:31N 32°08' W 080°49'0 0.0
2017-Nov-24 17:00N 32°08' W 080°49'0 0.4
2017-Nov-24 16:30N 32°08' W 080°49'0 0.1
2017-Nov-24 16:00N 32°08' W 080°49'0 0.2
2017-Nov-24 15:30N 32°08' W 080°49'0 0.5
2017-Nov-24 15:00N 32°08' W 080°49'0 0.0
2017-Nov-24 14:30N 32°08' W 080°49'0 0.1
2017-Nov-24 14:01N 32°08' W 080°49'0 0.0
2017-Nov-24 13:31N 32°08' W 080°49'0 0.0
2017-Nov-24 13:01N 32°08' W 080°49'0 0.0
2017-Nov-24 12:30N 32°08' W 080°49'0 0.0
2017-Nov-24 12:00N 32°08' W 080°49'0 0.0
2017-Nov-24 11:30N 32°08' W 080°49'0 0.0
2017-Nov-24 11:00N 32°08' W 080°49'0 0.0
2017-Nov-24 10:31N 32°08' W 080°49'0 0.0
2017-Nov-24 10:00N 32°08' W 080°49'0 0.0
2017-Nov-24 09:30N 32°08' W 080°49'0 0.0
2017-Nov-24 09:00N 32°08' W 080°49'0 0.0
2017-Nov-24 08:31N 32°08' W 080°49'0 0.0
2017-Nov-24 08:01N 32°08' W 080°49'0 0.0
2017-Nov-24 07:30N 32°08' W 080°49'0 0.0
2017-Nov-24 07:01N 32°08' W 080°49'0 0.0
2017-Nov-24 06:30N 32°08' W 080°49'0 0.0
2017-Nov-24 06:01N 32°08' W 080°49'0 0.0
2017-Nov-24 05:30N 32°08' W 080°49'0 0.0
2017-Nov-24 05:01N 32°08' W 080°49'0 0.0
2017-Nov-24 04:31N 32°08' W 080°49'0 0.0
2017-Nov-24 04:00N 32°08' W 080°49'0 0.0
2017-Nov-24 03:31N 32°08' W 080°49'0 0.0
2017-Nov-24 03:01N 32°08' W 080°49'0 0.0
2017-Nov-24 02:30N 32°08' W 080°49'0 0.0
2017-Nov-24 02:01N 32°08' W 080°49'0 0.0
2017-Nov-24 01:31N 32°08' W 080°49'0 0.0
2017-Nov-24 01:00N 32°08' W 080°49'0 0.0
2017-Nov-24 00:31N 32°08' W 080°49'0 0.0
2017-Nov-24 00:00N 32°08' W 080°49'0 0.0
2017-Nov-23 23:31N 32°08' W 080°49'0 0.0
2017-Nov-23 23:01N 32°08' W 080°49'  

Dump ship's entire track history